sensor_id;sensor_type;location;lat;lon;timestamp;P1;durP1;ratioP1;P2;durP2;ratioP2
36391;SDS011;22639;42.690;23.356;2022-07-18T00:00:07;4.78;;;2.60;;
36391;SDS011;22639;42.690;23.356;2022-07-18T00:02:33;4.20;;;2.90;;
36391;SDS011;22639;42.690;23.356;2022-07-18T00:04:59;2.42;;;2.22;;
36391;SDS011;22639;42.690;23.356;2022-07-18T00:07:25;4.65;;;2.28;;
36391;SDS011;22639;42.690;23.356;2022-07-18T00:09:50;2.78;;;2.10;;
36391;SDS011;22639;42.690;23.356;2022-07-18T00:12:16;2.58;;;2.38;;
36391;SDS011;22639;42.690;23.356;2022-07-18T00:14:41;4.18;;;2.55;;
36391;SDS011;22639;42.690;23.356;2022-07-18T00:17:07;3.58;;;2.40;;
36391;SDS011;22639;42.690;23.356;2022-07-18T00:19:33;4.30;;;2.58;;
36391;SDS011;22639;42.690;23.356;2022-07-18T00:22:00;2.20;;;2.08;;
36391;SDS011;22639;42.690;23.356;2022-07-18T00:24:26;2.95;;;2.38;;
36391;SDS011;22639;42.690;23.356;2022-07-18T00:26:52;3.15;;;2.65;;
36391;SDS011;22639;42.690;23.356;2022-07-18T00:29:18;2.72;;;2.47;;
36391;SDS011;22639;42.690;23.356;2022-07-18T00:31:44;5.35;;;3.90;;
36391;SDS011;22639;42.690;23.356;2022-07-18T00:34:09;3.22;;;2.50;;
36391;SDS011;22639;42.690;23.356;2022-07-18T00:36:35;2.47;;;2.20;;
36391;SDS011;22639;42.690;23.356;2022-07-18T00:39:01;4.20;;;2.72;;
36391;SDS011;22639;42.690;23.356;2022-07-18T00:41:27;2.38;;;2.17;;
36391;SDS011;22639;42.690;23.356;2022-07-18T00:43:52;2.08;;;1.85;;
36391;SDS011;22639;42.690;23.356;2022-07-18T00:46:22;2.45;;;2.25;;
36391;SDS011;22639;42.690;23.356;2022-07-18T00:48:48;2.63;;;2.42;;
36391;SDS011;22639;42.690;23.356;2022-07-18T00:51:14;3.45;;;2.42;;
36391;SDS011;22639;42.690;23.356;2022-07-18T00:53:39;2.45;;;2.10;;
36391;SDS011;22639;42.690;23.356;2022-07-18T00:56:05;2.50;;;2.30;;
36391;SDS011;22639;42.690;23.356;2022-07-18T00:58:31;2.33;;;2.10;;
36391;SDS011;22639;42.690;23.356;2022-07-18T01:00:57;3.72;;;2.33;;
36391;SDS011;22639;42.690;23.356;2022-07-18T01:03:41;2.70;;;2.00;;
36391;SDS011;22639;42.690;23.356;2022-07-18T01:06:07;2.50;;;2.28;;
36391;SDS011;22639;42.690;23.356;2022-07-18T01:08:32;4.35;;;2.53;;
36391;SDS011;22639;42.690;23.356;2022-07-18T01:11:00;3.58;;;2.20;;
36391;SDS011;22639;42.690;23.356;2022-07-18T01:13:25;1.90;;;1.67;;
36391;SDS011;22639;42.690;23.356;2022-07-18T01:15:51;1.77;;;1.60;;
36391;SDS011;22639;42.690;23.356;2022-07-18T01:18:17;2.72;;;1.75;;
36391;SDS011;22639;42.690;23.356;2022-07-18T01:20:42;2.20;;;2.00;;
36391;SDS011;22639;42.690;23.356;2022-07-18T01:23:08;2.88;;;1.85;;
36391;SDS011;22639;42.690;23.356;2022-07-18T01:25:33;3.05;;;2.03;;
36391;SDS011;22639;42.690;23.356;2022-07-18T01:27:59;1.60;;;1.50;;
36391;SDS011;22639;42.690;23.356;2022-07-18T01:30:25;2.38;;;1.95;;
36391;SDS011;22639;42.690;23.356;2022-07-18T01:32:54;2.90;;;1.88;;
36391;SDS011;22639;42.690;23.356;2022-07-18T01:35:22;1.88;;;1.73;;
36391;SDS011;22639;42.690;23.356;2022-07-18T01:37:51;2.83;;;1.90;;
36391;SDS011;22639;42.690;23.356;2022-07-18T01:40:17;2.08;;;1.80;;
36391;SDS011;22639;42.690;23.356;2022-07-18T01:42:43;1.40;;;1.30;;
36391;SDS011;22639;42.690;23.356;2022-07-18T01:45:09;2.53;;;1.50;;
36391;SDS011;22639;42.690;23.356;2022-07-18T01:47:34;1.65;;;1.50;;
36391;SDS011;22639;42.690;23.356;2022-07-18T01:50:00;1.73;;;1.63;;
36391;SDS011;22639;42.690;23.356;2022-07-18T01:52:25;1.38;;;1.25;;
36391;SDS011;22639;42.690;23.356;2022-07-18T01:54:51;2.05;;;1.83;;
36391;SDS011;22639;42.690;23.356;2022-07-18T01:57:16;1.65;;;1.55;;
36391;SDS011;22639;42.690;23.356;2022-07-18T01:59:42;2.47;;;1.88;;
36391;SDS011;22639;42.690;23.356;2022-07-18T02:02:07;1.73;;;1.60;;
36391;SDS011;22639;42.690;23.356;2022-07-18T02:04:33;1.83;;;1.60;;
36391;SDS011;22639;42.690;23.356;2022-07-18T02:07:17;2.47;;;1.92;;
36391;SDS011;22639;42.690;23.356;2022-07-18T02:09:42;2.35;;;1.88;;
36391;SDS011;22639;42.690;23.356;2022-07-18T02:12:08;2.63;;;1.75;;
36391;SDS011;22639;42.690;23.356;2022-07-18T02:14:33;2.25;;;1.23;;
36391;SDS011;22639;42.690;23.356;2022-07-18T02:16:59;3.13;;;1.70;;
36391;SDS011;22639;42.690;23.356;2022-07-18T02:19:24;2.05;;;1.80;;
36391;SDS011;22639;42.690;23.356;2022-07-18T02:21:49;2.47;;;1.90;;
36391;SDS011;22639;42.690;23.356;2022-07-18T02:24:15;3.85;;;2.00;;
36391;SDS011;22639;42.690;23.356;2022-07-18T02:26:40;2.00;;;1.90;;
36391;SDS011;22639;42.690;23.356;2022-07-18T02:29:06;5.30;;;1.92;;
36391;SDS011;22639;42.690;23.356;2022-07-18T02:31:31;1.77;;;1.60;;
36391;SDS011;22639;42.690;23.356;2022-07-18T02:33:56;2.85;;;2.15;;
36391;SDS011;22639;42.690;23.356;2022-07-18T02:36:22;2.00;;;1.70;;
36391;SDS011;22639;42.690;23.356;2022-07-18T02:38:47;2.05;;;1.85;;
36391;SDS011;22639;42.690;23.356;2022-07-18T02:41:13;3.88;;;1.95;;
36391;SDS011;22639;42.690;23.356;2022-07-18T02:43:38;2.35;;;1.70;;
36391;SDS011;22639;42.690;23.356;2022-07-18T02:46:03;2.80;;;1.98;;
36391;SDS011;22639;42.690;23.356;2022-07-18T02:48:29;2.20;;;2.00;;
36391;SDS011;22639;42.690;23.356;2022-07-18T02:50:54;2.17;;;1.90;;
36391;SDS011;22639;42.690;23.356;2022-07-18T02:53:20;2.30;;;1.80;;
36391;SDS011;22639;42.690;23.356;2022-07-18T02:55:48;2.65;;;1.95;;
36391;SDS011;22639;42.690;23.356;2022-07-18T02:58:16;3.80;;;1.85;;
36391;SDS011;22639;42.690;23.356;2022-07-18T03:00:42;2.22;;;2.03;;
36391;SDS011;22639;42.690;23.356;2022-07-18T03:03:08;2.28;;;2.08;;
36391;SDS011;22639;42.690;23.356;2022-07-18T03:05:34;1.80;;;1.70;;
36391;SDS011;22639;42.690;23.356;2022-07-18T03:07:59;2.08;;;1.88;;
36391;SDS011;22639;42.690;23.356;2022-07-18T03:10:25;2.85;;;2.53;;
36391;SDS011;22639;42.690;23.356;2022-07-18T03:12:50;4.50;;;2.05;;
36391;SDS011;22639;42.690;23.356;2022-07-18T03:15:15;4.47;;;2.45;;
36391;SDS011;22639;42.690;23.356;2022-07-18T03:17:41;2.70;;;2.03;;
36391;SDS011;22639;42.690;23.356;2022-07-18T03:20:07;2.05;;;1.70;;
36391;SDS011;22639;42.690;23.356;2022-07-18T03:22:32;2.13;;;1.80;;
36391;SDS011;22639;42.690;23.356;2022-07-18T03:24:59;3.03;;;1.52;;
36391;SDS011;22639;42.690;23.356;2022-07-18T03:27:24;1.98;;;1.60;;
36391;SDS011;22639;42.690;23.356;2022-07-18T03:29:50;2.22;;;1.60;;
36391;SDS011;22639;42.690;23.356;2022-07-18T03:32:15;3.03;;;1.58;;
36391;SDS011;22639;42.690;23.356;2022-07-18T03:34:41;2.20;;;1.98;;
36391;SDS011;22639;42.690;23.356;2022-07-18T03:37:06;1.98;;;1.70;;
36391;SDS011;22639;42.690;23.356;2022-07-18T03:39:31;4.60;;;1.85;;
36391;SDS011;22639;42.690;23.356;2022-07-18T03:41:57;2.70;;;1.60;;
36391;SDS011;22639;42.690;23.356;2022-07-18T03:44:22;2.45;;;1.50;;
36391;SDS011;22639;42.690;23.356;2022-07-18T03:46:48;3.47;;;1.70;;
36391;SDS011;22639;42.690;23.356;2022-07-18T03:49:15;2.63;;;1.92;;
36391;SDS011;22639;42.690;23.356;2022-07-18T03:51:40;3.88;;;2.25;;
36391;SDS011;22639;42.690;23.356;2022-07-18T03:54:06;3.80;;;2.85;;
36391;SDS011;22639;42.690;23.356;2022-07-18T03:56:31;3.45;;;3.08;;
36391;SDS011;22639;42.690;23.356;2022-07-18T03:58:57;2.40;;;2.20;;
36391;SDS011;22639;42.690;23.356;2022-07-18T04:01:22;6.30;;;4.53;;
36391;SDS011;22639;42.690;23.356;2022-07-18T04:03:48;6.10;;;3.15;;
36391;SDS011;22639;42.690;23.356;2022-07-18T04:06:13;5.82;;;2.83;;
36391;SDS011;22639;42.690;23.356;2022-07-18T04:08:38;4.05;;;2.42;;
36391;SDS011;22639;42.690;23.356;2022-07-18T04:11:04;3.65;;;2.92;;
36391;SDS011;22639;42.690;23.356;2022-07-18T04:13:31;2.40;;;2.20;;
36391;SDS011;22639;42.690;23.356;2022-07-18T04:15:56;2.45;;;2.20;;
36391;SDS011;22639;42.690;23.356;2022-07-18T04:18:22;4.43;;;2.40;;
36391;SDS011;22639;42.690;23.356;2022-07-18T04:20:47;2.53;;;2.33;;
36391;SDS011;22639;42.690;23.356;2022-07-18T04:23:12;4.05;;;2.15;;
36391;SDS011;22639;42.690;23.356;2022-07-18T04:25:39;2.72;;;2.50;;
36391;SDS011;22639;42.690;23.356;2022-07-18T04:28:06;6.28;;;3.67;;
36391;SDS011;22639;42.690;23.356;2022-07-18T04:30:33;4.28;;;2.67;;
36391;SDS011;22639;42.690;23.356;2022-07-18T04:33:00;2.85;;;2.30;;
36391;SDS011;22639;42.690;23.356;2022-07-18T04:35:30;3.83;;;2.70;;
36391;SDS011;22639;42.690;23.356;2022-07-18T04:37:56;3.60;;;2.60;;
36391;SDS011;22639;42.690;23.356;2022-07-18T04:40:22;3.30;;;2.20;;
36391;SDS011;22639;42.690;23.356;2022-07-18T04:42:48;5.40;;;2.30;;
36391;SDS011;22639;42.690;23.356;2022-07-18T04:45:13;4.07;;;2.33;;
36391;SDS011;22639;42.690;23.356;2022-07-18T04:47:40;5.38;;;2.95;;
36391;SDS011;22639;42.690;23.356;2022-07-18T04:50:06;3.63;;;2.92;;
36391;SDS011;22639;42.690;23.356;2022-07-18T04:52:37;3.60;;;3.10;;
36391;SDS011;22639;42.690;23.356;2022-07-18T04:55:04;3.13;;;2.85;;
36391;SDS011;22639;42.690;23.356;2022-07-18T04:57:30;3.78;;;3.45;;
36391;SDS011;22639;42.690;23.356;2022-07-18T04:59:55;4.55;;;3.10;;
36391;SDS011;22639;42.690;23.356;2022-07-18T05:02:21;5.13;;;3.40;;
36391;SDS011;22639;42.690;23.356;2022-07-18T05:04:46;2.95;;;2.75;;
36391;SDS011;22639;42.690;23.356;2022-07-18T05:07:11;4.00;;;3.40;;
36391;SDS011;22639;42.690;23.356;2022-07-18T05:09:37;4.20;;;3.20;;
36391;SDS011;22639;42.690;23.356;2022-07-18T05:12:02;3.63;;;3.08;;
36391;SDS011;22639;42.690;23.356;2022-07-18T05:14:28;4.20;;;3.75;;
36391;SDS011;22639;42.690;23.356;2022-07-18T05:16:54;5.65;;;3.90;;
36391;SDS011;22639;42.690;23.356;2022-07-18T05:19:19;5.28;;;3.72;;
36391;SDS011;22639;42.690;23.356;2022-07-18T05:21:44;6.68;;;3.75;;
36391;SDS011;22639;42.690;23.356;2022-07-18T05:24:10;3.97;;;3.58;;
36391;SDS011;22639;42.690;23.356;2022-07-18T05:26:36;6.53;;;4.05;;
36391;SDS011;22639;42.690;23.356;2022-07-18T05:29:02;4.75;;;4.30;;
36391;SDS011;22639;42.690;23.356;2022-07-18T05:31:28;4.47;;;3.83;;
36391;SDS011;22639;42.690;23.356;2022-07-18T05:33:53;4.40;;;3.53;;
36391;SDS011;22639;42.690;23.356;2022-07-18T05:36:18;4.47;;;3.53;;
36391;SDS011;22639;42.690;23.356;2022-07-18T05:38:44;3.72;;;3.33;;
36391;SDS011;22639;42.690;23.356;2022-07-18T05:41:11;6.30;;;4.10;;
36391;SDS011;22639;42.690;23.356;2022-07-18T05:43:36;7.25;;;4.40;;
36391;SDS011;22639;42.690;23.356;2022-07-18T05:46:02;6.22;;;2.72;;
36391;SDS011;22639;42.690;23.356;2022-07-18T05:48:28;4.50;;;2.88;;
36391;SDS011;22639;42.690;23.356;2022-07-18T05:50:53;6.57;;;2.92;;
36391;SDS011;22639;42.690;23.356;2022-07-18T05:53:19;9.50;;;2.97;;
36391;SDS011;22639;42.690;23.356;2022-07-18T05:55:44;2.45;;;2.20;;
36391;SDS011;22639;42.690;23.356;2022-07-18T05:58:10;2.50;;;2.30;;
36391;SDS011;22639;42.690;23.356;2022-07-18T06:00:35;2.92;;;2.45;;
36391;SDS011;22639;42.690;23.356;2022-07-18T06:03:01;4.45;;;2.28;;
36391;SDS011;22639;42.690;23.356;2022-07-18T06:05:26;4.80;;;1.63;;
36391;SDS011;22639;42.690;23.356;2022-07-18T06:07:53;2.15;;;1.65;;
36391;SDS011;22639;42.690;23.356;2022-07-18T06:10:19;1.63;;;1.30;;
36391;SDS011;22639;42.690;23.356;2022-07-18T06:12:46;2.67;;;1.55;;
36391;SDS011;22639;42.690;23.356;2022-07-18T06:15:12;2.15;;;1.40;;
36391;SDS011;22639;42.690;23.356;2022-07-18T06:17:38;1.55;;;1.30;;
36391;SDS011;22639;42.690;23.356;2022-07-18T06:20:04;1.80;;;1.30;;
36391;SDS011;22639;42.690;23.356;2022-07-18T06:22:32;2.85;;;1.38;;
36391;SDS011;22639;42.690;23.356;2022-07-18T06:24:59;1.98;;;1.20;;
36391;SDS011;22639;42.690;23.356;2022-07-18T06:27:26;1.20;;;1.10;;
36391;SDS011;22639;42.690;23.356;2022-07-18T06:29:51;2.28;;;1.55;;
36391;SDS011;22639;42.690;23.356;2022-07-18T06:32:17;1.55;;;1.10;;
36391;SDS011;22639;42.690;23.356;2022-07-18T06:34:42;2.42;;;1.83;;
36391;SDS011;22639;42.690;23.356;2022-07-18T06:37:08;3.35;;;1.85;;
36391;SDS011;22639;42.690;23.356;2022-07-18T06:39:33;1.55;;;1.42;;
36391;SDS011;22639;42.690;23.356;2022-07-18T06:41:59;3.03;;;1.52;;
36391;SDS011;22639;42.690;23.356;2022-07-18T06:44:24;1.98;;;1.50;;
36391;SDS011;22639;42.690;23.356;2022-07-18T06:46:50;1.33;;;1.23;;
36391;SDS011;22639;42.690;23.356;2022-07-18T06:49:17;2.92;;;1.95;;
36391;SDS011;22639;42.690;23.356;2022-07-18T06:51:44;1.52;;;1.20;;
36391;SDS011;22639;42.690;23.356;2022-07-18T06:54:09;1.35;;;1.17;;
36391;SDS011;22639;42.690;23.356;2022-07-18T06:56:35;1.98;;;1.02;;
36391;SDS011;22639;42.690;23.356;2022-07-18T06:59:00;1.23;;;1.05;;
36391;SDS011;22639;42.690;23.356;2022-07-18T07:01:26;1.83;;;1.15;;
36391;SDS011;22639;42.690;23.356;2022-07-18T07:03:51;3.30;;;1.20;;
36391;SDS011;22639;42.690;23.356;2022-07-18T07:06:17;3.30;;;1.52;;
36391;SDS011;22639;42.690;23.356;2022-07-18T07:08:43;1.73;;;1.00;;
36391;SDS011;22639;42.690;23.356;2022-07-18T07:11:08;1.30;;;1.20;;
36391;SDS011;22639;42.690;23.356;2022-07-18T07:13:34;4.32;;;1.85;;
36391;SDS011;22639;42.690;23.356;2022-07-18T07:16:00;1.83;;;1.40;;
36391;SDS011;22639;42.690;23.356;2022-07-18T07:18:25;2.00;;;1.90;;
36391;SDS011;22639;42.690;23.356;2022-07-18T07:20:51;1.83;;;1.58;;
36391;SDS011;22639;42.690;23.356;2022-07-18T07:23:16;1.50;;;1.02;;
36391;SDS011;22639;42.690;23.356;2022-07-18T07:25:42;1.58;;;1.40;;
36391;SDS011;22639;42.690;23.356;2022-07-18T07:28:07;1.25;;;0.93;;
36391;SDS011;22639;42.690;23.356;2022-07-18T07:30:33;0.93;;;0.93;;
36391;SDS011;22639;42.690;23.356;2022-07-18T07:32:59;1.00;;;0.95;;
36391;SDS011;22639;42.690;23.356;2022-07-18T07:35:26;1.27;;;1.00;;
36391;SDS011;22639;42.690;23.356;2022-07-18T07:37:53;1.30;;;1.10;;
36391;SDS011;22639;42.690;23.356;2022-07-18T07:40:21;2.53;;;1.30;;
36391;SDS011;22639;42.690;23.356;2022-07-18T07:42:49;1.33;;;1.20;;
36391;SDS011;22639;42.690;23.356;2022-07-18T07:45:15;3.22;;;1.33;;
36391;SDS011;22639;42.690;23.356;2022-07-18T07:47:41;1.30;;;1.15;;
36391;SDS011;22639;42.690;23.356;2022-07-18T07:50:07;1.73;;;1.60;;
36391;SDS011;22639;42.690;23.356;2022-07-18T07:52:35;2.35;;;1.17;;
36391;SDS011;22639;42.690;23.356;2022-07-18T07:55:02;1.42;;;1.17;;
36391;SDS011;22639;42.690;23.356;2022-07-18T07:57:28;4.05;;;1.55;;
36391;SDS011;22639;42.690;23.356;2022-07-18T07:59:54;2.30;;;1.75;;
36391;SDS011;22639;42.690;23.356;2022-07-18T08:02:19;1.85;;;1.40;;
36391;SDS011;22639;42.690;23.356;2022-07-18T08:04:45;1.38;;;1.25;;
36391;SDS011;22639;42.690;23.356;2022-07-18T08:07:10;1.10;;;0.85;;
36391;SDS011;22639;42.690;23.356;2022-07-18T08:09:37;1.10;;;1.00;;
36391;SDS011;22639;42.690;23.356;2022-07-18T08:12:03;1.40;;;1.30;;
36391;SDS011;22639;42.690;23.356;2022-07-18T08:14:29;2.67;;;0.95;;
36391;SDS011;22639;42.690;23.356;2022-07-18T08:16:55;2.20;;;1.15;;
36391;SDS011;22639;42.690;23.356;2022-07-18T08:19:20;1.00;;;1.00;;
36391;SDS011;22639;42.690;23.356;2022-07-18T08:21:45;5.68;;;1.10;;
36391;SDS011;22639;42.690;23.356;2022-07-18T08:24:11;1.55;;;1.40;;
36391;SDS011;22639;42.690;23.356;2022-07-18T08:26:36;0.82;;;0.80;;
36391;SDS011;22639;42.690;23.356;2022-07-18T08:29:04;1.80;;;1.67;;
36391;SDS011;22639;42.690;23.356;2022-07-18T08:31:30;2.03;;;1.00;;
36391;SDS011;22639;42.690;23.356;2022-07-18T08:33:56;0.85;;;0.80;;
36391;SDS011;22639;42.690;23.356;2022-07-18T08:36:21;1.13;;;1.02;;
36391;SDS011;22639;42.690;23.356;2022-07-18T08:38:47;1.17;;;1.08;;
36391;SDS011;22639;42.690;23.356;2022-07-18T08:41:13;1.35;;;1.10;;
36391;SDS011;22639;42.690;23.356;2022-07-18T08:43:42;1.92;;;1.10;;
36391;SDS011;22639;42.690;23.356;2022-07-18T08:46:09;1.27;;;1.13;;
36391;SDS011;22639;42.690;23.356;2022-07-18T08:48:36;1.17;;;0.90;;
36391;SDS011;22639;42.690;23.356;2022-07-18T08:51:05;1.20;;;1.10;;
36391;SDS011;22639;42.690;23.356;2022-07-18T08:53:31;1.42;;;1.00;;
36391;SDS011;22639;42.690;23.356;2022-07-18T08:55:59;1.02;;;0.93;;
36391;SDS011;22639;42.690;23.356;2022-07-18T08:58:25;2.63;;;1.20;;
36391;SDS011;22639;42.690;23.356;2022-07-18T09:00:50;1.48;;;1.25;;
36391;SDS011;22639;42.690;23.356;2022-07-18T09:03:16;1.75;;;1.05;;
36391;SDS011;22639;42.690;23.356;2022-07-18T09:05:43;3.90;;;1.05;;
36391;SDS011;22639;42.690;23.356;2022-07-18T09:13:18;1.35;;;1.00;;
36391;SDS011;22639;42.690;23.356;2022-07-18T09:15:56;1.23;;;1.10;;
36391;SDS011;22639;42.690;23.356;2022-07-18T09:18:28;1.30;;;1.20;;
36391;SDS011;22639;42.690;23.356;2022-07-18T09:20:58;1.45;;;1.17;;
36391;SDS011;22639;42.690;23.356;2022-07-18T09:23:28;3.83;;;1.20;;
36391;SDS011;22639;42.690;23.356;2022-07-18T09:25:58;1.60;;;1.50;;
36391;SDS011;22639;42.690;23.356;2022-07-18T09:28:28;1.40;;;1.30;;
36391;SDS011;22639;42.690;23.356;2022-07-18T09:30:54;2.10;;;1.77;;
36391;SDS011;22639;42.690;23.356;2022-07-18T09:33:20;1.67;;;1.30;;
36391;SDS011;22639;42.690;23.356;2022-07-18T09:38:17;1.00;;;1.00;;
36391;SDS011;22639;42.690;23.356;2022-07-18T09:40:49;1.35;;;1.08;;
36391;SDS011;22639;42.690;23.356;2022-07-18T09:43:17;1.75;;;1.50;;
36391;SDS011;22639;42.690;23.356;2022-07-18T09:48:13;2.05;;;1.40;;
36391;SDS011;22639;42.690;23.356;2022-07-18T09:50:57;3.35;;;1.50;;
36391;SDS011;22639;42.690;23.356;2022-07-18T09:53:26;3.22;;;1.48;;
36391;SDS011;22639;42.690;23.356;2022-07-18T09:56:33;1.38;;;1.20;;
36391;SDS011;22639;42.690;23.356;2022-07-18T09:58:59;2.30;;;1.60;;
36391;SDS011;22639;42.690;23.356;2022-07-18T10:01:25;2.50;;;1.52;;
36391;SDS011;22639;42.690;23.356;2022-07-18T10:03:52;1.70;;;1.40;;
36391;SDS011;22639;42.690;23.356;2022-07-18T10:06:18;1.45;;;1.35;;
36391;SDS011;22639;42.690;23.356;2022-07-18T10:08:43;2.22;;;1.60;;
36391;SDS011;22639;42.690;23.356;2022-07-18T10:11:09;1.90;;;1.50;;
36391;SDS011;22639;42.690;23.356;2022-07-18T10:13:36;2.15;;;1.45;;
36391;SDS011;22639;42.690;23.356;2022-07-18T10:16:03;2.55;;;1.60;;
36391;SDS011;22639;42.690;23.356;2022-07-18T10:18:29;2.05;;;1.88;;
36391;SDS011;22639;42.690;23.356;2022-07-18T10:21:15;2.47;;;1.70;;
36391;SDS011;22639;42.690;23.356;2022-07-18T10:23:45;3.45;;;1.63;;
36391;SDS011;22639;42.690;23.356;2022-07-18T10:31:31;3.42;;;1.70;;
36391;SDS011;22639;42.690;23.356;2022-07-18T10:36:36;2.25;;;1.73;;
36391;SDS011;22639;42.690;23.356;2022-07-18T11:00:12;2.42;;;1.65;;
36391;SDS011;22639;42.690;23.356;2022-07-18T11:03:06;2.15;;;1.85;;
36391;SDS011;22639;42.690;23.356;2022-07-18T11:15:57;2.08;;;1.88;;
36391;SDS011;22639;42.690;23.356;2022-07-18T11:18:24;3.00;;;2.08;;
36391;SDS011;22639;42.690;23.356;2022-07-18T11:20:50;3.22;;;2.10;;
36391;SDS011;22639;42.690;23.356;2022-07-18T11:25:50;2.70;;;1.92;;
36391;SDS011;22639;42.690;23.356;2022-07-18T11:28:19;2.10;;;1.42;;
36391;SDS011;22639;42.690;23.356;2022-07-18T11:30:45;3.72;;;2.10;;
36391;SDS011;22639;42.690;23.356;2022-07-18T11:33:21;2.08;;;1.80;;
36391;SDS011;22639;42.690;23.356;2022-07-18T11:35:49;2.00;;;1.80;;
36391;SDS011;22639;42.690;23.356;2022-07-18T11:38:14;2.10;;;1.75;;
36391;SDS011;22639;42.690;23.356;2022-07-18T11:40:52;2.83;;;2.00;;
36391;SDS011;22639;42.690;23.356;2022-07-18T11:43:21;1.80;;;1.70;;
36391;SDS011;22639;42.690;23.356;2022-07-18T11:45:48;2.30;;;2.10;;
36391;SDS011;22639;42.690;23.356;2022-07-18T11:48:23;1.98;;;1.80;;
36391;SDS011;22639;42.690;23.356;2022-07-18T11:50:48;3.75;;;1.70;;
36391;SDS011;22639;42.690;23.356;2022-07-18T11:53:14;1.90;;;1.80;;
36391;SDS011;22639;42.690;23.356;2022-07-18T11:55:40;2.40;;;2.20;;
36391;SDS011;22639;42.690;23.356;2022-07-18T11:58:09;2.35;;;1.85;;
36391;SDS011;22639;42.690;23.356;2022-07-18T12:00:39;5.03;;;2.67;;
36391;SDS011;22639;42.690;23.356;2022-07-18T12:03:10;3.33;;;2.22;;
36391;SDS011;22639;42.690;23.356;2022-07-18T12:05:40;2.80;;;2.03;;
36391;SDS011;22639;42.690;23.356;2022-07-18T12:11:04;3.00;;;2.15;;
36391;SDS011;22639;42.690;23.356;2022-07-18T12:19:23;2.42;;;2.22;;
36391;SDS011;22639;42.690;23.356;2022-07-18T12:24:50;2.97;;;2.20;;
36391;SDS011;22639;42.690;23.356;2022-07-18T12:30:06;2.85;;;2.30;;
36391;SDS011;22639;42.690;23.356;2022-07-18T12:32:58;6.32;;;2.30;;
36391;SDS011;22639;42.690;23.356;2022-07-18T12:35:31;2.17;;;1.80;;
36391;SDS011;22639;42.690;23.356;2022-07-18T12:38:13;2.47;;;2.28;;
36391;SDS011;22639;42.690;23.356;2022-07-18T12:40:47;2.00;;;1.90;;
36391;SDS011;22639;42.690;23.356;2022-07-18T12:46:02;2.63;;;2.40;;
36391;SDS011;22639;42.690;23.356;2022-07-18T12:48:29;2.53;;;2.08;;
36391;SDS011;22639;42.690;23.356;2022-07-18T12:51:06;2.17;;;2.05;;
36391;SDS011;22639;42.690;23.356;2022-07-18T12:53:34;3.40;;;2.70;;
36391;SDS011;22639;42.690;23.356;2022-07-18T12:56:02;4.22;;;2.67;;
36391;SDS011;22639;42.690;23.356;2022-07-18T12:58:29;2.60;;;2.38;;
36391;SDS011;22639;42.690;23.356;2022-07-18T13:00:54;2.42;;;2.22;;
36391;SDS011;22639;42.690;23.356;2022-07-18T13:03:21;2.70;;;2.50;;
36391;SDS011;22639;42.690;23.356;2022-07-18T13:05:47;2.08;;;1.98;;
36391;SDS011;22639;42.690;23.356;2022-07-18T13:08:13;3.70;;;2.53;;
36391;SDS011;22639;42.690;23.356;2022-07-18T13:10:39;2.25;;;2.08;;
36391;SDS011;22639;42.690;23.356;2022-07-18T13:13:06;3.55;;;2.40;;
36391;SDS011;22639;42.690;23.356;2022-07-18T13:15:32;3.92;;;2.53;;
36391;SDS011;22639;42.690;23.356;2022-07-18T13:17:58;2.53;;;2.33;;
36391;SDS011;22639;42.690;23.356;2022-07-18T13:20:24;4.05;;;2.42;;
36391;SDS011;22639;42.690;23.356;2022-07-18T13:22:50;3.60;;;2.20;;
36391;SDS011;22639;42.690;23.356;2022-07-18T13:25:16;3.50;;;2.58;;
36391;SDS011;22639;42.690;23.356;2022-07-18T13:27:42;2.30;;;2.10;;
36391;SDS011;22639;42.690;23.356;2022-07-18T13:30:08;2.92;;;1.90;;
36391;SDS011;22639;42.690;23.356;2022-07-18T13:32:35;2.80;;;2.60;;
36391;SDS011;22639;42.690;23.356;2022-07-18T13:35:01;3.13;;;2.70;;
36391;SDS011;22639;42.690;23.356;2022-07-18T13:37:27;2.85;;;2.55;;
36391;SDS011;22639;42.690;23.356;2022-07-18T13:39:53;2.97;;;2.25;;
36391;SDS011;22639;42.690;23.356;2022-07-18T13:42:18;3.95;;;2.58;;
36391;SDS011;22639;42.690;23.356;2022-07-18T13:44:44;2.40;;;2.20;;
36391;SDS011;22639;42.690;23.356;2022-07-18T13:47:10;2.47;;;2.20;;
36391;SDS011;22639;42.690;23.356;2022-07-18T13:49:36;3.10;;;2.38;;
36391;SDS011;22639;42.690;23.356;2022-07-18T13:52:02;4.70;;;2.38;;
36391;SDS011;22639;42.690;23.356;2022-07-18T13:54:27;2.97;;;2.60;;
36391;SDS011;22639;42.690;23.356;2022-07-18T13:56:53;2.72;;;2.45;;
36391;SDS011;22639;42.690;23.356;2022-07-18T13:59:18;3.10;;;2.80;;
36391;SDS011;22639;42.690;23.356;2022-07-18T14:01:44;4.32;;;2.80;;
36391;SDS011;22639;42.690;23.356;2022-07-18T14:04:09;2.85;;;2.65;;
36391;SDS011;22639;42.690;23.356;2022-07-18T14:06:36;2.55;;;2.35;;
36391;SDS011;22639;42.690;23.356;2022-07-18T14:09:03;5.82;;;3.00;;
36391;SDS011;22639;42.690;23.356;2022-07-18T14:11:29;2.65;;;2.35;;
36391;SDS011;22639;42.690;23.356;2022-07-18T14:13:57;4.60;;;2.40;;
36391;SDS011;22639;42.690;23.356;2022-07-18T14:16:23;2.42;;;2.22;;
36391;SDS011;22639;42.690;23.356;2022-07-18T14:18:48;2.60;;;2.40;;
36391;SDS011;22639;42.690;23.356;2022-07-18T14:21:14;2.72;;;2.53;;
36391;SDS011;22639;42.690;23.356;2022-07-18T14:23:39;8.60;;;2.50;;
36391;SDS011;22639;42.690;23.356;2022-07-18T14:26:05;3.60;;;2.72;;
36391;SDS011;22639;42.690;23.356;2022-07-18T14:28:30;4.78;;;2.80;;
36391;SDS011;22639;42.690;23.356;2022-07-18T14:30:56;4.38;;;2.70;;
36391;SDS011;22639;42.690;23.356;2022-07-18T14:33:21;2.72;;;2.50;;
36391;SDS011;22639;42.690;23.356;2022-07-18T14:35:47;4.00;;;2.97;;
36391;SDS011;22639;42.690;23.356;2022-07-18T14:38:12;3.10;;;2.67;;
36391;SDS011;22639;42.690;23.356;2022-07-18T14:40:37;2.58;;;2.38;;
36391;SDS011;22639;42.690;23.356;2022-07-18T14:43:03;3.58;;;3.08;;
36391;SDS011;22639;42.690;23.356;2022-07-18T14:45:28;2.72;;;2.40;;
36391;SDS011;22639;42.690;23.356;2022-07-18T14:47:54;3.13;;;2.63;;
36391;SDS011;22639;42.690;23.356;2022-07-18T14:50:19;2.80;;;2.60;;
36391;SDS011;22639;42.690;23.356;2022-07-18T14:52:45;2.92;;;2.72;;
36391;SDS011;22639;42.690;23.356;2022-07-18T14:55:11;2.50;;;2.30;;
36391;SDS011;22639;42.690;23.356;2022-07-18T14:57:36;3.53;;;2.22;;
36391;SDS011;22639;42.690;23.356;2022-07-18T15:00:05;2.83;;;2.63;;
36391;SDS011;22639;42.690;23.356;2022-07-18T15:02:33;2.97;;;2.50;;
36391;SDS011;22639;42.690;23.356;2022-07-18T15:05:00;2.70;;;2.50;;
36391;SDS011;22639;42.690;23.356;2022-07-18T15:07:26;2.72;;;2.53;;
36391;SDS011;22639;42.690;23.356;2022-07-18T15:09:51;3.75;;;2.67;;
36391;SDS011;22639;42.690;23.356;2022-07-18T15:12:16;3.35;;;3.05;;
36391;SDS011;22639;42.690;23.356;2022-07-18T15:14:42;2.67;;;2.45;;
36391;SDS011;22639;42.690;23.356;2022-07-18T15:17:07;5.07;;;3.30;;
36391;SDS011;22639;42.690;23.356;2022-07-18T15:19:33;3.67;;;2.88;;
36391;SDS011;22639;42.690;23.356;2022-07-18T15:21:59;3.92;;;3.63;;
36391;SDS011;22639;42.690;23.356;2022-07-18T15:24:25;2.90;;;2.70;;
36391;SDS011;22639;42.690;23.356;2022-07-18T15:26:50;3.20;;;3.00;;
36391;SDS011;22639;42.690;23.356;2022-07-18T15:29:15;5.82;;;3.25;;
36391;SDS011;22639;42.690;23.356;2022-07-18T15:31:41;3.45;;;3.13;;
36391;SDS011;22639;42.690;23.356;2022-07-18T15:34:06;3.00;;;2.80;;
36391;SDS011;22639;42.690;23.356;2022-07-18T15:36:32;3.97;;;3.08;;
36391;SDS011;22639;42.690;23.356;2022-07-18T15:38:57;3.20;;;2.90;;